Minerva Anna — SVNP — position and weather

sailwx.info

Track history (hours):
 
Tides and Currents Weather Stations Pressure Air Temp Water Temp Dewpoint Dewpoint Depression Visibility Wind Speed Wind Dir Waves Ship Positions

Minerva Anna

Last reported at 2015-Jun-29 00:32 UTC. Time now 2015-Jul-07 08:50 UTC.
Position N 36°44' W 027°54'.
Warning: this ship's position is 8 days out of date.

Length 183 m; draft 11.8 m.

Type: Tanker. MMSI: 240729000.

Date/timePositionNaut miles runAvg speedWind from/ knotsBaromVisibWave heightAir tempDewpointWater temp
2015-Jun-29 00:32N 36°44' W 027°54'1212.2
2015-Jun-28 23:33N 36°44' W 027°39'1212.2
2015-Jun-28 22:33N 36°44' W 027°23'1212.1
2015-Jun-28 21:33N 36°44' W 027°09'1212.1
2015-Jun-28 20:33N 36°44' W 026°53'1212.0
2015-Jun-28 19:32N 36°44' W 026°38'1212.2
2015-Jun-28 18:33N 36°44' W 026°23'1212.4
2015-Jun-28 17:33N 36°44' W 026°08'1212.5
2015-Jun-28 16:33N 36°44' W 025°52'1312.7
2015-Jun-28 15:34N 36°43' W 025°37'1212.4
2015-Jun-28 14:34N 36°43' W 025°21'1312.6
2015-Jun-28 13:34N 36°43' W 025°05'1312.5
2015-Jun-28 12:33N 36°42' W 024°50'1212.4
2015-Jun-28 11:33N 36°42' W 024°34'1212.3
2015-Jun-28 10:33N 36°42' W 024°19'1212.3
2015-Jun-28 09:34N 36°41' W 024°04'1212.4
2015-Jun-28 08:33N 36°41' W 023°48'1212.2
2015-Jun-28 07:33N 36°40' W 023°33'1312.8
2015-Jun-28 06:32N 36°40' W 023°16'1212.9
2015-Jun-28 05:33N 36°39' W 023°01'1312.7
2015-Jun-28 04:33N 36°39' W 022°45'1312.9
2015-Jun-28 03:34N 36°38' W 022°29'1312.7
2015-Jun-28 02:33N 36°37' W 022°13'1312.8
2015-Jun-28 01:34N 36°36' W 021°57'1312.6
2015-Jun-28 00:32N 36°36' W 021°41'1312.9
2015-Jun-27 23:34N 36°35' W 021°26'1412.8
2015-Jun-27 22:28N 36°34' W 021°08'1612.7
2015-Jun-27 21:11N 36°33' W 020°48'2512.4
2015-Jun-27 19:10N 36°31' W 020°17'712.3
2015-Jun-27 18:34N 36°30' W 020°08'14012.3
2015-Jun-27 07:07N 36°18' W 017°14'712.4
2015-Jun-27 06:32N 36°17' W 017°05'1412.4
2015-Jun-27 05:25N 36°15' W 016°48'1112.2
2015-Jun-27 04:32N 36°14' W 016°35'1212.2
2015-Jun-27 03:34N 36°12' W 016°20'1812.3
2015-Jun-27 02:07N 36°13' W 015°58'712.3
2015-Jun-27 01:33N 36°13' W 015°49'3812.6
2015-Jun-26 22:33N 36°13' W 015°03'5112.5
2015-Jun-26 18:27N 36°13' W 013°59'1212.9
2015-Jun-26 17:33N 36°13' W 013°44'1313.0
2015-Jun-26 16:33N 36°13' W 013°28'1212.5
2015-Jun-26 15:33N 36°13' W 013°13'1312.5
2015-Jun-26 14:32N 36°13' W 012°57'1212.3
2015-Jun-26 13:33N 36°13' W 012°42'1212.3
2015-Jun-26 12:33N 36°13' W 012°27'1212.3
2015-Jun-26 11:33N 36°12' W 012°12'1312.6
2015-Jun-26 10:32N 36°12' W 011°56'1212.6
2015-Jun-26 09:33N 36°12' W 011°40'1512.6
2015-Jun-26 08:21N 36°11' W 011°21'1112.5
2015-Jun-26 07:27N 36°10' W 011°08'1112.6
2015-Jun-26 06:33N 36°09' W 010°54'1312.6
2015-Jun-26 05:33N 36°07' W 010°38'1212.4
2015-Jun-26 04:33N 36°06' W 010°23'1212.3
2015-Jun-26 03:33N 36°05' W 010°08'1212.5
2015-Jun-26 02:33N 36°03' W 009°53'1212.4
2015-Jun-26 01:33N 36°02' W 009°37'1212.3
2015-Jun-26 00:33N 36°01' W 009°22'1212.2
2015-Jun-25 23:33N 36°00' W 009°07'1212.2
2015-Jun-25 22:34N 35°59' W 008°52'1212.2
2015-Jun-25 21:34N 35°58' W 008°37'1312.3
2015-Jun-25 20:28N 35°57' W 008°21'13212.0
2015-Jun-25 09:29N 35°58' W 005°37'910.2
2015-Jun-25 08:33N 36°00' W 005°26'8 7.8
2015-Jun-25 07:33N 36°08' W 005°23'1 0.3
2015-Jun-25 04:27N 36°09' W 005°23'0 0.0
2015-Jun-25 02:09N 36°09' W 005°23'0 0.0
2015-Jun-25 01:09N 36°09' W 005°23'0 0.1
2015-Jun-24 23:30N 36°09' W 005°23'0 0.0
2015-Jun-24 22:33N 36°09' W 005°23'0 0.0
2015-Jun-24 21:27N 36°09' W 005°23'0 0.0
2015-Jun-24 20:27N 36°09' W 005°23'0 0.0
2015-Jun-24 19:24N 36°09' W 005°23'0 0.1
2015-Jun-24 18:33N 36°09' W 005°23'0 0.1
2015-Jun-24 17:13N 36°09' W 005°23'3 5.1
2015-Jun-24 16:33N 36°06' W 005°21'5 5.2
2015-Jun-24 15:33N 36°05' W 005°14'5 4.7
2015-Jun-24 14:33N 36°06' W 005°09'12010.9
2015-Jun-24 03:31N 36°22' W 002°41'1313.1
2015-Jun-24 02:33N 36°24' W 002°26'1313.1
2015-Jun-24 01:33N 36°26' W 002°09'1313.1
2015-Jun-24 00:32N 36°30' W 001°54'1313.2
2015-Jun-23 23:32N 36°34' W 001°38'1312.9
2015-Jun-23 22:33N 36°37' W 001°23'1912.6
2015-Jun-23 21:05N 36°41' W 001°00'1112.2
2015-Jun-23 20:09N 36°44' W 000°46'912.4
2015-Jun-23 19:27N 36°46' W 000°36'511.8
2015-Jun-23 19:00N 36°47' W 000°29'27411.7
2015-Jun-22 19:33N 37°30' E 005°10'1212.2
2015-Jun-22 18:33N 37°32' E 005°25'1512.4
2015-Jun-22 17:19N 37°34' E 005°45'1112.6
2015-Jun-22 16:26N 37°35' E 005°58'1213.0
2015-Jun-22 15:32N 37°37' E 006°13'1414.6
2015-Jun-22 14:33N 37°39' E 006°31'1615.3
2015-Jun-22 13:30N 37°41' E 006°51'1111.8
2015-Jun-22 12:33N 37°44' E 007°05'1110.6
2015-Jun-22 11:33N 37°44' E 007°18'6412.1
2015-Jun-22 06:17N 37°52' E 008°38'912.1
2015-Jun-22 05:32N 37°54' E 008°49'1312.0
2015-Jun-22 04:29N 37°53' E 009°05'15111.6
2015-Jun-21 15:31N 37°05' E 012°05'1311.2
2015-Jun-21 14:19N 37°00' E 012°21'911.2
2015-Jun-21 13:33N 36°57' E 012°31'1111.2
2015-Jun-21 12:33N 36°53' E 012°44'1111.4
2015-Jun-21 11:33N 36°49' E 012°58'1111.4
2015-Jun-21 10:33N 36°45' E 013°11'1111.4
2015-Jun-21 09:33N 36°41' E 013°24'1111.4
2015-Jun-21 08:33N 36°37' E 013°38'1111.4
2015-Jun-21 07:33N 36°33' E 013°51'1211.8
2015-Jun-21 06:33N 36°29' E 014°05'1211.6
2015-Jun-21 05:33N 36°25' E 014°18'1111.1
2015-Jun-21 04:33N 36°22' E 014°31'1110.9
2015-Jun-21 03:33N 36°22' E 014°45'1110.8
2015-Jun-21 02:33N 36°21' E 014°58'  
Track history (hours):
 
Tides and Currents Weather Stations Pressure Air Temp Water Temp Dewpoint Dewpoint Depression Visibility Wind Speed Wind Dir Waves Ship Positions

Minerva Anna

Last reported at 2015-Jun-29 00:32 UTC. Time now 2015-Jul-07 08:50 UTC.
Position N 36°44' W 027°54'.
Warning: this ship's position is 8 days out of date.

Length 183 m; draft 11.8 m.

Type: Tanker. MMSI: 240729000.

Date/timePositionNaut miles runAvg speedWind from/ knotsBaromVisibWave heightAir tempDewpointWater temp
2015-Jun-29 00:32N 36°44' W 027°54'1212.2
2015-Jun-28 23:33N 36°44' W 027°39'1212.2
2015-Jun-28 22:33N 36°44' W 027°23'1212.1
2015-Jun-28 21:33N 36°44' W 027°09'1212.1
2015-Jun-28 20:33N 36°44' W 026°53'1212.0
2015-Jun-28 19:32N 36°44' W 026°38'1212.2
2015-Jun-28 18:33N 36°44' W 026°23'1212.4
2015-Jun-28 17:33N 36°44' W 026°08'1212.5
2015-Jun-28 16:33N 36°44' W 025°52'1312.7
2015-Jun-28 15:34N 36°43' W 025°37'1212.4
2015-Jun-28 14:34N 36°43' W 025°21'1312.6
2015-Jun-28 13:34N 36°43' W 025°05'1312.5
2015-Jun-28 12:33N 36°42' W 024°50'1212.4
2015-Jun-28 11:33N 36°42' W 024°34'1212.3
2015-Jun-28 10:33N 36°42' W 024°19'1212.3
2015-Jun-28 09:34N 36°41' W 024°04'1212.4
2015-Jun-28 08:33N 36°41' W 023°48'1212.2
2015-Jun-28 07:33N 36°40' W 023°33'1312.8
2015-Jun-28 06:32N 36°40' W 023°16'1212.9
2015-Jun-28 05:33N 36°39' W 023°01'1312.7
2015-Jun-28 04:33N 36°39' W 022°45'1312.9
2015-Jun-28 03:34N 36°38' W 022°29'1312.7
2015-Jun-28 02:33N 36°37' W 022°13'1312.8
2015-Jun-28 01:34N 36°36' W 021°57'1312.6
2015-Jun-28 00:32N 36°36' W 021°41'1312.9
2015-Jun-27 23:34N 36°35' W 021°26'1412.8
2015-Jun-27 22:28N 36°34' W 021°08'1612.7
2015-Jun-27 21:11N 36°33' W 020°48'2512.4
2015-Jun-27 19:10N 36°31' W 020°17'712.3
2015-Jun-27 18:34N 36°30' W 020°08'14012.3
2015-Jun-27 07:07N 36°18' W 017°14'712.4
2015-Jun-27 06:32N 36°17' W 017°05'1412.4
2015-Jun-27 05:25N 36°15' W 016°48'1112.2
2015-Jun-27 04:32N 36°14' W 016°35'1212.2
2015-Jun-27 03:34N 36°12' W 016°20'1812.3
2015-Jun-27 02:07N 36°13' W 015°58'712.3
2015-Jun-27 01:33N 36°13' W 015°49'3812.6
2015-Jun-26 22:33N 36°13' W 015°03'5112.5
2015-Jun-26 18:27N 36°13' W 013°59'1212.9
2015-Jun-26 17:33N 36°13' W 013°44'1313.0
2015-Jun-26 16:33N 36°13' W 013°28'1212.5
2015-Jun-26 15:33N 36°13' W 013°13'1312.5
2015-Jun-26 14:32N 36°13' W 012°57'1212.3
2015-Jun-26 13:33N 36°13' W 012°42'1212.3
2015-Jun-26 12:33N 36°13' W 012°27'1212.3
2015-Jun-26 11:33N 36°12' W 012°12'1312.6
2015-Jun-26 10:32N 36°12' W 011°56'1212.6
2015-Jun-26 09:33N 36°12' W 011°40'1512.6
2015-Jun-26 08:21N 36°11' W 011°21'1112.5
2015-Jun-26 07:27N 36°10' W 011°08'1112.6
2015-Jun-26 06:33N 36°09' W 010°54'1312.6
2015-Jun-26 05:33N 36°07' W 010°38'1212.4
2015-Jun-26 04:33N 36°06' W 010°23'1212.3
2015-Jun-26 03:33N 36°05' W 010°08'1212.5
2015-Jun-26 02:33N 36°03' W 009°53'1212.4
2015-Jun-26 01:33N 36°02' W 009°37'1212.3
2015-Jun-26 00:33N 36°01' W 009°22'1212.2
2015-Jun-25 23:33N 36°00' W 009°07'1212.2
2015-Jun-25 22:34N 35°59' W 008°52'1212.2
2015-Jun-25 21:34N 35°58' W 008°37'1312.3
2015-Jun-25 20:28N 35°57' W 008°21'13212.0
2015-Jun-25 09:29N 35°58' W 005°37'910.2
2015-Jun-25 08:33N 36°00' W 005°26'8 7.8
2015-Jun-25 07:33N 36°08' W 005°23'1 0.3
2015-Jun-25 04:27N 36°09' W 005°23'0 0.0
2015-Jun-25 02:09N 36°09' W 005°23'0 0.0
2015-Jun-25 01:09N 36°09' W 005°23'0 0.1
2015-Jun-24 23:30N 36°09' W 005°23'0 0.0
2015-Jun-24 22:33N 36°09' W 005°23'0 0.0
2015-Jun-24 21:27N 36°09' W 005°23'0 0.0
2015-Jun-24 20:27N 36°09' W 005°23'0 0.0
2015-Jun-24 19:24N 36°09' W 005°23'0 0.1
2015-Jun-24 18:33N 36°09' W 005°23'0 0.1
2015-Jun-24 17:13N 36°09' W 005°23'3 5.1
2015-Jun-24 16:33N 36°06' W 005°21'5 5.2
2015-Jun-24 15:33N 36°05' W 005°14'5 4.7
2015-Jun-24 14:33N 36°06' W 005°09'12010.9
2015-Jun-24 03:31N 36°22' W 002°41'1313.1
2015-Jun-24 02:33N 36°24' W 002°26'1313.1
2015-Jun-24 01:33N 36°26' W 002°09'1313.1
2015-Jun-24 00:32N 36°30' W 001°54'1313.2
2015-Jun-23 23:32N 36°34' W 001°38'1312.9
2015-Jun-23 22:33N 36°37' W 001°23'1912.6
2015-Jun-23 21:05N 36°41' W 001°00'1112.2
2015-Jun-23 20:09N 36°44' W 000°46'912.4
2015-Jun-23 19:27N 36°46' W 000°36'511.8
2015-Jun-23 19:00N 36°47' W 000°29'27411.7
2015-Jun-22 19:33N 37°30' E 005°10'1212.2
2015-Jun-22 18:33N 37°32' E 005°25'1512.4
2015-Jun-22 17:19N 37°34' E 005°45'1112.6
2015-Jun-22 16:26N 37°35' E 005°58'1213.0
2015-Jun-22 15:32N 37°37' E 006°13'1414.6
2015-Jun-22 14:33N 37°39' E 006°31'1615.3
2015-Jun-22 13:30N 37°41' E 006°51'1111.8
2015-Jun-22 12:33N 37°44' E 007°05'1110.6
2015-Jun-22 11:33N 37°44' E 007°18'6412.1
2015-Jun-22 06:17N 37°52' E 008°38'912.1
2015-Jun-22 05:32N 37°54' E 008°49'1312.0
2015-Jun-22 04:29N 37°53' E 009°05'15111.6
2015-Jun-21 15:31N 37°05' E 012°05'1311.2
2015-Jun-21 14:19N 37°00' E 012°21'911.2
2015-Jun-21 13:33N 36°57' E 012°31'1111.2
2015-Jun-21 12:33N 36°53' E 012°44'1111.4
2015-Jun-21 11:33N 36°49' E 012°58'1111.4
2015-Jun-21 10:33N 36°45' E 013°11'1111.4
2015-Jun-21 09:33N 36°41' E 013°24'1111.4
2015-Jun-21 08:33N 36°37' E 013°38'1111.4
2015-Jun-21 07:33N 36°33' E 013°51'1211.8
2015-Jun-21 06:33N 36°29' E 014°05'1211.6
2015-Jun-21 05:33N 36°25' E 014°18'1111.1
2015-Jun-21 04:33N 36°22' E 014°31'1110.9
2015-Jun-21 03:33N 36°22' E 014°45'1110.8
2015-Jun-21 02:33N 36°21' E 014°58'  

Dump ship's entire track history